Portada
METAR-TAF:

METAR-TAF

Aeropuertos :

Aeropuerto Internacional Gustavo Rojas Pinilla

San Andrés, Colombia

latitud: 12-35N, longitud: 081-43W, altitud: 1 m

Observación

El informe se hizo hace 53 minutos, a las 20:00 UTC
Viento 13 kt del este-noreste, variando entre noreste y este
Temperatura 31°C
Humedad 75%
Presión 1012 hPa
Visibilidad 10 km o más
Escasas nubes a una altura de 1800 ft

METAR: SKSP 232000Z 07013KT 040V100 9999 FEW018 31/26 Q1012

Hora: 15:53 (20:53 UTC)

Pronóstico

El informe se hizo hace 4 horas y 23 minutos, a las 16:30 UTC
Pronóstico válido del 23 a las 18 UTC al 24 a las 18 UTC
Viento 15 kt del este
Visibilidad 10 km o más
Escasas nubes a una altura de 1700 ft
Temporalmente
del 24 a las 07 UTC al 24 a las 12 UTC
Nubes dispersas a una altura de 1500 ft, Cumulonimbus.
tormenta, lluvia,

TAF: SKSP 231630Z 2318/2418 08015KT 9999 FEW017 TEMPO 2407/2412 TSRA SCT015CB TX32/2319Z TN28/2410Z

Observaciones y pronósticos meteorológicos de más de 4000 aeropuertos (mensajes METAR y TAF).

Los puntos amarillos y rojos representan las estaciones disponibles.

Ponga el ratón en el punto deseado para ver el nombre de la estación.

Haga clic para ver las observaciones y los pronósticos meteorológicos.

Para cambiar el mapa : haga clic en los botones verdes con una cruz de color negro para hacer un zoom, en el botón verde con un guión para alejar o en las flechas verdes para mapas adyacentes.


METAR-TAF: